BCS71N LEVT-LEAL
Flight info
| Callsign | BCS71N |
|---|---|
| Flight time | 1h 2m |
| Altitude | 31000 |
| Route | PPN DCT EXEMU DCT CMA/N0406F300 DCT DISVU/N0352F220 M176 MANDY/N0357F230 M176 CLS |
| Aircraft | B738/M-SDFGHIJ1RWY/LB1 |
Departure
| Time | 2026-05-04 07:46 |
|---|---|
| Airport | Vitoria Airport (LEVT) |
Arrival
| Time | 2026-05-04 08:49 |
|---|---|
| Airport | Alicante-Elche Miguel Hernández Airport (LEAL) |
| Time | Latitude | Longitude | Altitude | Speed | Heading |
|---|---|---|---|---|---|
| 2026-05-04 06:37 | 42.87710 | -2.73750 | 1676 ft | 0 kts | 35° |
| 2026-05-04 07:39 | 42.87715 | -2.73746 | 1676 ft | 2 kts | 37° |
| 2026-05-04 07:39 | 42.87718 | -2.73721 | 1676 ft | 4 kts | 95° |
| 2026-05-04 07:40 | 42.87701 | -2.73677 | 1680 ft | 7 kts | 126° |
| 2026-05-04 07:40 | 42.87687 | -2.73613 | 1676 ft | 7 kts | 80° |
| 2026-05-04 07:40 | 42.87720 | -2.73563 | 1682 ft | 7 kts | 35° |
| 2026-05-04 07:40 | 42.87760 | -2.73523 | 1676 ft | 7 kts | 37° |
| 2026-05-04 07:41 | 42.87799 | -2.73486 | 1676 ft | 7 kts | 35° |
| 2026-05-04 07:41 | 42.87816 | -2.73432 | 1676 ft | 7 kts | 106° |
| 2026-05-04 07:41 | 42.87791 | -2.73379 | 1676 ft | 7 kts | 127° |
| 2026-05-04 07:41 | 42.87764 | -2.73330 | 1676 ft | 6 kts | 130° |
| 2026-05-04 07:42 | 42.87724 | -2.73309 | 1676 ft | 6 kts | 184° |
| 2026-05-04 07:42 | 42.87686 | -2.73336 | 1676 ft | 6 kts | 216° |
| 2026-05-04 07:42 | 42.87649 | -2.73372 | 1676 ft | 7 kts | 216° |
| 2026-05-04 07:42 | 42.87601 | -2.73421 | 1678 ft | 10 kts | 216° |
| 2026-05-04 07:43 | 42.87534 | -2.73486 | 1678 ft | 13 kts | 216° |
| 2026-05-04 07:43 | 42.87460 | -2.73559 | 1686 ft | 13 kts | 216° |
| 2026-05-04 07:43 | 42.87388 | -2.73629 | 1681 ft | 13 kts | 216° |
| 2026-05-04 07:43 | 42.87318 | -2.73698 | 1676 ft | 12 kts | 216° |
| 2026-05-04 07:44 | 42.87249 | -2.73766 | 1678 ft | 12 kts | 216° |
| 2026-05-04 07:44 | 42.87185 | -2.73829 | 1678 ft | 11 kts | 216° |
| 2026-05-04 07:44 | 42.87122 | -2.73859 | 1676 ft | 10 kts | 164° |
| 2026-05-04 07:44 | 42.87075 | -2.73795 | 1685 ft | 10 kts | 125° |
| 2026-05-04 07:45 | 42.87049 | -2.73710 | 1673 ft | 10 kts | 96° |
| 2026-05-04 07:45 | 42.87079 | -2.73632 | 1680 ft | 10 kts | 37° |
| 2026-05-04 07:45 | 42.87161 | -2.73551 | 1679 ft | 29 kts | 36° |
| 2026-05-04 07:45 | 42.87532 | -2.73186 | 1674 ft | 101 kts | 36° |
| 2026-05-04 07:46 | 42.88271 | -2.72463 | 1701 ft | 156 kts | 35° |
| 2026-05-04 07:46 | 42.89170 | -2.71584 | 2330 ft | 158 kts | 36° |
| 2026-05-04 07:46 | 42.90066 | -2.70706 | 3039 ft | 160 kts | 35° |
| 2026-05-04 07:46 | 42.90982 | -2.69844 | 3697 ft | 161 kts | 35° |
| 2026-05-04 07:47 | 42.91820 | -2.68665 | 3988 ft | 191 kts | 63° |
| 2026-05-04 07:47 | 42.92038 | -2.66808 | 4262 ft | 215 kts | 100° |
| 2026-05-04 07:47 | 42.91398 | -2.64941 | 4676 ft | 224 kts | 123° |
| 2026-05-04 07:49 | 42.84190 | -2.50036 | 8826 ft | 289 kts | 124° |
| 2026-05-04 07:49 | 42.83090 | -2.47754 | 9640 ft | 293 kts | 125° |
| 2026-05-04 07:49 | 42.81967 | -2.45428 | 10481 ft | 295 kts | 126° |
| 2026-05-04 07:50 | 42.80841 | -2.43075 | 11328 ft | 298 kts | 126° |
| 2026-05-04 07:50 | 42.79713 | -2.40692 | 12181 ft | 301 kts | 126° |
| 2026-05-04 07:50 | 42.78573 | -2.38284 | 13002 ft | 304 kts | 126° |
| 2026-05-04 07:50 | 42.77418 | -2.35846 | 13829 ft | 308 kts | 127° |
| 2026-05-04 07:51 | 42.76250 | -2.33383 | 14662 ft | 312 kts | 127° |
| 2026-05-04 07:51 | 42.75065 | -2.30891 | 15481 ft | 316 kts | 127° |
| 2026-05-04 07:51 | 42.73869 | -2.28364 | 16279 ft | 321 kts | 125° |
| 2026-05-04 07:51 | 42.73073 | -2.25399 | 16562 ft | 354 kts | 100° |
| 2026-05-04 07:52 | 42.73000 | -2.21928 | 16792 ft | 379 kts | 92° |
| 2026-05-04 07:52 | 42.73093 | -2.18278 | 17232 ft | 392 kts | 91° |
| 2026-05-04 07:52 | 42.73204 | -2.14547 | 17937 ft | 396 kts | 91° |
| 2026-05-04 07:52 | 42.73262 | -2.12068 | 18433 ft | 397 kts | 92° |
| 2026-05-04 07:53 | 42.73323 | -2.08291 | 19102 ft | 402 kts | 92° |
| 2026-05-04 07:54 | 42.73311 | -1.80660 | 23256 ft | 428 kts | 103° |
| 2026-05-04 07:55 | 42.72453 | -1.76834 | 23768 ft | 421 kts | 121° |
| 2026-05-04 07:55 | 42.70864 | -1.73550 | 24330 ft | 413 kts | 136° |
| 2026-05-04 07:55 | 42.68813 | -1.70869 | 24980 ft | 405 kts | 147° |
| 2026-05-04 07:55 | 42.66451 | -1.68908 | 25688 ft | 392 kts | 163° |
| 2026-05-04 07:56 | 42.63872 | -1.67943 | 26445 ft | 380 kts | 174° |
| 2026-05-04 07:56 | 42.61314 | -1.67332 | 27136 ft | 377 kts | 176° |
| 2026-05-04 07:56 | 42.58696 | -1.66785 | 27725 ft | 376 kts | 176° |
| 2026-05-04 07:56 | 42.56144 | -1.66269 | 28332 ft | 375 kts | 177° |
| 2026-05-04 07:57 | 42.53576 | -1.65744 | 28957 ft | 372 kts | 176° |
| 2026-05-04 07:57 | 42.51024 | -1.65210 | 29610 ft | 369 kts | 177° |
| 2026-05-04 07:57 | 42.48498 | -1.64670 | 30245 ft | 365 kts | 177° |
| 2026-05-04 07:57 | 42.45997 | -1.64128 | 30808 ft | 364 kts | 177° |
| 2026-05-04 07:58 | 42.43480 | -1.63581 | 30954 ft | 366 kts | 177° |
| 2026-05-04 07:58 | 42.40972 | -1.63032 | 30977 ft | 364 kts | 177° |
| 2026-05-04 07:58 | 42.35946 | -1.61928 | 30994 ft | 367 kts | 177° |
| 2026-05-04 07:59 | 42.30907 | -1.60820 | 30996 ft | 367 kts | 177° |
| 2026-05-04 07:59 | 42.25868 | -1.59715 | 30997 ft | 367 kts | 177° |
| 2026-05-04 08:00 | 42.20863 | -1.58617 | 30989 ft | 366 kts | 177° |
| 2026-05-04 08:02 | 42.00765 | -1.54228 | 30986 ft | 365 kts | 177° |
| 2026-05-04 08:02 | 41.95763 | -1.53140 | 30994 ft | 364 kts | 178° |
| 2026-05-04 08:03 | 41.90782 | -1.52057 | 30988 ft | 364 kts | 178° |
| 2026-05-04 08:03 | 41.85780 | -1.50975 | 30992 ft | 364 kts | 178° |
| 2026-05-04 08:04 | 41.80778 | -1.49892 | 30992 ft | 365 kts | 178° |
| 2026-05-04 08:04 | 41.75763 | -1.48809 | 30992 ft | 365 kts | 178° |
| 2026-05-04 08:05 | 41.70749 | -1.47728 | 30989 ft | 365 kts | 178° |
| 2026-05-04 08:05 | 41.65732 | -1.46647 | 30992 ft | 365 kts | 178° |
| 2026-05-04 08:06 | 41.60718 | -1.45568 | 30988 ft | 365 kts | 178° |
| 2026-05-04 08:06 | 41.55737 | -1.44497 | 30993 ft | 364 kts | 178° |
| 2026-05-04 08:08 | 41.35723 | -1.40216 | 30989 ft | 365 kts | 178° |
| 2026-05-04 08:11 | 41.13283 | -1.35435 | 30990 ft | 362 kts | 179° |
| 2026-05-04 08:11 | 41.05811 | -1.33847 | 30986 ft | 363 kts | 179° |
| 2026-05-04 08:12 | 41.00826 | -1.32788 | 30992 ft | 363 kts | 179° |
| 2026-05-04 08:12 | 40.95821 | -1.31730 | 30986 ft | 364 kts | 179° |
| 2026-05-04 08:13 | 40.90829 | -1.30673 | 30991 ft | 363 kts | 179° |
| 2026-05-04 08:13 | 40.85860 | -1.29612 | 30992 ft | 364 kts | 178° |
| 2026-05-04 08:14 | 40.80874 | -1.28229 | 30992 ft | 366 kts | 176° |
| 2026-05-04 08:16 | 40.60996 | -1.22777 | 31011 ft | 364 kts | 178° |
| 2026-05-04 08:16 | 40.56032 | -1.21437 | 31008 ft | 364 kts | 178° |
| 2026-05-04 08:17 | 40.51099 | -1.20107 | 31019 ft | 363 kts | 178° |
| 2026-05-04 08:17 | 40.46142 | -1.18770 | 31017 ft | 363 kts | 178° |
| 2026-05-04 08:19 | 40.26323 | -1.13455 | 31021 ft | 362 kts | 178° |
| 2026-05-04 08:20 | 40.21385 | -1.12136 | 31016 ft | 362 kts | 178° |
| 2026-05-04 08:20 | 40.16445 | -1.10814 | 31014 ft | 362 kts | 178° |
| 2026-05-04 08:21 | 40.11533 | -1.09502 | 31032 ft | 363 kts | 178° |
| 2026-05-04 08:21 | 40.06568 | -1.08181 | 31018 ft | 364 kts | 178° |
| 2026-05-04 08:22 | 40.01600 | -1.06860 | 31021 ft | 364 kts | 178° |
| 2026-05-04 08:24 | 39.84216 | -1.02228 | 30672 ft | 366 kts | 178° |
| 2026-05-04 08:24 | 39.81736 | -1.01559 | 30420 ft | 362 kts | 178° |
| 2026-05-04 08:24 | 39.79284 | -1.00897 | 30171 ft | 358 kts | 178° |
| 2026-05-04 08:24 | 39.76852 | -1.00244 | 29928 ft | 356 kts | 178° |
| 2026-05-04 08:25 | 39.74436 | -0.99598 | 29672 ft | 354 kts | 178° |
| 2026-05-04 08:25 | 39.72062 | -0.98964 | 29419 ft | 352 kts | 178° |
| 2026-05-04 08:25 | 39.69666 | -0.98374 | 29167 ft | 347 kts | 181° |
| 2026-05-04 08:25 | 39.67277 | -0.97965 | 28923 ft | 344 kts | 182° |
| 2026-05-04 08:26 | 39.64899 | -0.97630 | 28669 ft | 342 kts | 183° |
| 2026-05-04 08:27 | 39.48458 | -0.95332 | 26929 ft | 339 kts | 182° |
| 2026-05-04 08:28 | 39.46115 | -0.94990 | 26673 ft | 339 kts | 182° |
| 2026-05-04 08:28 | 39.43771 | -0.94648 | 26432 ft | 339 kts | 182° |
| 2026-05-04 08:28 | 39.41431 | -0.94303 | 26152 ft | 336 kts | 182° |
| 2026-05-04 08:28 | 39.39121 | -0.93961 | 25818 ft | 332 kts | 182° |
| 2026-05-04 08:29 | 39.36860 | -0.93629 | 25438 ft | 329 kts | 182° |
| 2026-05-04 08:29 | 39.34592 | -0.93296 | 25057 ft | 326 kts | 181° |
| 2026-05-04 08:29 | 39.32350 | -0.92970 | 24684 ft | 322 kts | 182° |
| 2026-05-04 08:31 | 39.15914 | -0.90592 | 21923 ft | 345 kts | 180° |
| 2026-05-04 08:33 | 38.99525 | -0.88210 | 19167 ft | 333 kts | 181° |
| 2026-05-04 08:33 | 38.97230 | -0.87879 | 18790 ft | 332 kts | 181° |
| 2026-05-04 08:35 | 38.81334 | -0.85591 | 16127 ft | 327 kts | 180° |
| 2026-05-04 08:35 | 38.79071 | -0.85267 | 15744 ft | 327 kts | 180° |
| 2026-05-04 08:35 | 38.76813 | -0.84942 | 15358 ft | 326 kts | 180° |
| 2026-05-04 08:35 | 38.74564 | -0.84619 | 14975 ft | 325 kts | 179° |
| 2026-05-04 08:37 | 38.61459 | -0.82746 | 11993 ft | 313 kts | 178° |
| 2026-05-04 08:37 | 38.59302 | -0.82436 | 11413 ft | 311 kts | 178° |
| 2026-05-04 08:37 | 38.57186 | -0.82131 | 11156 ft | 297 kts | 177° |
| 2026-05-04 08:38 | 38.55222 | -0.81925 | 11013 ft | 276 kts | 187° |
| 2026-05-04 08:38 | 38.53459 | -0.82553 | 10897 ft | 253 kts | 208° |
| 2026-05-04 08:38 | 38.52023 | -0.83728 | 10682 ft | 240 kts | 220° |
| 2026-05-04 08:40 | 38.43115 | -0.93661 | 7634 ft | 242 kts | 221° |
| 2026-05-04 08:40 | 38.41832 | -0.94965 | 7205 ft | 237 kts | 214° |
| 2026-05-04 08:40 | 38.40376 | -0.95963 | 6593 ft | 239 kts | 203° |
| 2026-05-04 08:41 | 38.38828 | -0.96670 | 6273 ft | 230 kts | 199° |
| 2026-05-04 08:41 | 38.37341 | -0.97338 | 6005 ft | 224 kts | 200° |
| 2026-05-04 08:41 | 38.35842 | -0.97636 | 5741 ft | 218 kts | 169° |
| 2026-05-04 08:41 | 38.34506 | -0.96814 | 5601 ft | 213 kts | 134° |
| 2026-05-04 08:42 | 38.34003 | -0.95769 | 5528 ft | 209 kts | 107° |
| 2026-05-04 08:42 | 38.33680 | -0.93967 | 5299 ft | 211 kts | 103° |
| 2026-05-04 08:42 | 38.33367 | -0.92145 | 5031 ft | 210 kts | 102° |
| 2026-05-04 08:42 | 38.33086 | -0.90336 | 4767 ft | 207 kts | 101° |
| 2026-05-04 08:43 | 38.32825 | -0.88545 | 4488 ft | 205 kts | 101° |
| 2026-05-04 08:43 | 38.32570 | -0.86776 | 4240 ft | 200 kts | 101° |
| 2026-05-04 08:43 | 38.32326 | -0.85051 | 4053 ft | 195 kts | 101° |
| 2026-05-04 08:43 | 38.32089 | -0.83379 | 3884 ft | 189 kts | 101° |
| 2026-05-04 08:44 | 38.31860 | -0.81755 | 3842 ft | 184 kts | 101° |
| 2026-05-04 08:44 | 38.31626 | -0.80103 | 3634 ft | 192 kts | 101° |
| 2026-05-04 08:46 | 38.30085 | -0.69160 | 1986 ft | 161 kts | 101° |
| 2026-05-04 08:46 | 38.29891 | -0.67789 | 1773 ft | 155 kts | 101° |
| 2026-05-04 08:46 | 38.29705 | -0.66474 | 1569 ft | 148 kts | 101° |
| 2026-05-04 08:46 | 38.29528 | -0.65202 | 1371 ft | 145 kts | 101° |
| 2026-05-04 08:47 | 38.29350 | -0.63925 | 1192 ft | 148 kts | 101° |
| 2026-05-04 08:47 | 38.29181 | -0.62612 | 992 ft | 152 kts | 101° |
| 2026-05-04 08:47 | 38.28985 | -0.61294 | 811 ft | 151 kts | 103° |
| 2026-05-04 08:47 | 38.28795 | -0.59989 | 608 ft | 151 kts | 101° |
| 2026-05-04 08:48 | 38.28617 | -0.58679 | 403 ft | 150 kts | 101° |
| 2026-05-04 08:48 | 38.28436 | -0.57373 | 198 ft | 149 kts | 101° |
| 2026-05-04 08:48 | 38.28262 | -0.56141 | 111 ft | 129 kts | 100° |
| 2026-05-04 08:48 | 38.28132 | -0.55207 | 85 ft | 85 kts | 100° |
| 2026-05-04 08:49 | 38.28064 | -0.54713 | 69 ft | 41 kts | 100° |
| 2026-05-04 08:50 | 38.28242 | -0.54723 | 68 ft | 10 kts | 279° |
| 2026-05-04 08:50 | 38.28254 | -0.54812 | 61 ft | 10 kts | 280° |
| 2026-05-04 08:51 | 38.28266 | -0.54899 | 71 ft | 10 kts | 280° |
| 2026-05-04 08:51 | 38.28278 | -0.54984 | 73 ft | 10 kts | 280° |
| 2026-05-04 08:51 | 38.28290 | -0.55068 | 82 ft | 10 kts | 280° |
| 2026-05-04 08:51 | 38.28304 | -0.55162 | 84 ft | 12 kts | 280° |
| 2026-05-04 08:52 | 38.28319 | -0.55273 | 87 ft | 14 kts | 279° |
| 2026-05-04 08:52 | 38.28336 | -0.55399 | 92 ft | 16 kts | 280° |
| 2026-05-04 08:52 | 38.28357 | -0.55543 | 96 ft | 17 kts | 280° |
| 2026-05-04 08:52 | 38.28378 | -0.55699 | 100 ft | 19 kts | 280° |
| 2026-05-04 08:53 | 38.28401 | -0.55859 | 102 ft | 18 kts | 280° |
| 2026-05-04 08:54 | 38.28600 | -0.56598 | 116 ft | 9 kts | 10° |
| 2026-05-04 08:55 | 38.28663 | -0.56594 | 119 ft | 9 kts | 4° |
| 2026-05-04 08:55 | 38.28695 | -0.56562 | 117 ft | 5 kts | 79° |
| 2026-05-04 08:55 | 38.28690 | -0.56524 | 115 ft | 1 kts | 102° |
| 2026-05-04 08:55 | 38.28687 | -0.56507 | 113 ft | 0 kts | 101° |